• Join FlightAware (Why Join?)
  • Login
  • US Flag 
05:15AM EST


 

Airport Tracker/Info


-or-


 

Live Flight TrackerFlight Track Log ✈ UPS2752 ✈ 20-Aug-2013 ✈ KSDF - KDFW

Flight Track Log - Related Links

Times and Time Zones

All times are in EDT time to prevent confusion due to time zone crossing. See the UPS2752 flight status page for this flight to view local times or setup timezone preferences in your user account.

Time Position Orientation Groundspeed Altitude Reporting Facility
EDT Latitude Longitude Course Direction KTS MPH feet Rate Location/Type
05:31PM 38.1760 -85.7450 180° South 145 167  Level FlightAware
05:31PM 38.1570 -85.7390 166° South 180 207 1,600 3,540 Climbing FlightAware
05:31PM 38.1390 -85.7340 168° South 209 241 2,500 2,160 Climbing FlightAware
05:32PM 38.1220 -85.7330 177° South 245 282 2,900 2,700 Climbing FlightAware
05:32PM 38.0930 -85.7420 194° South 258 297 4,400 3,480 Climbing FlightAware
05:32PM 38.0860 -85.7490 218° Southwest 261 300 4,900 3,960 Climbing FlightAware
05:32PM 38.0820 -85.7540 225° Southwest 263 303 5,200 4,320 Climbing FlightAware
05:32PM 38.0780 -85.7630 241° Southwest 267 307 5,700 3,960 Climbing FlightAware
05:33PM 38.0750 -85.7750 252° West 273 314 6,200 3,720 Climbing FlightAware
05:33PM 38.0740 -85.7880 264° West 279 321 6,700 3,720 Climbing FlightAware
05:33PM 38.0740 -85.8230 270° West 283 326 8,000 3,840 Climbing FlightAware
05:33PM 38.0750 -85.8500 273° West 287 330 9,100 2,700 Climbing FlightAware
05:34PM 38.0750 -85.8950 270° West 298 343 9,900 1,620 Climbing FlightAware
05:34PM 38.0670 -85.9610 261° West 341 392 10,800 1,920 Climbing FlightAware
05:35PM 38.0540 -85.9870 238° Southwest 352 405 11,500 2,400 Climbing FlightAware
05:35PM 38.0230 -86.0360 231° Southwest 377 434 12,600 1,920 Climbing FlightAware
05:36PM 37.9810 -86.1010 231° Southwest 418 481 13,700 2,220 Climbing FlightAware
05:36PM 37.9430 -86.1630 232° Southwest 431 496 15,300 3,000 Climbing FlightAware
05:37PM 37.9020 -86.2430 237° Southwest 439 505 17,200 2,820 Climbing FlightAware
05:37PM 37.8890 -86.3260 259° West 453 521 18,600 2,460 Climbing FlightAware
05:38PM 37.8740 -86.4390 260° West 466 536 20,300 2,460 Climbing FlightAware
05:39PM 37.8610 -86.5450 261° West 474 545 21,900 2,280 Climbing FlightAware
05:39PM 37.8490 -86.6420 261° West 470 541 23,200 2,220 Climbing FlightAware
05:40PM 37.8370 -86.7420 261° West 475 547 24,500 2,160 Climbing FlightAware
05:41PM 37.8240 -86.8500 261° West 483 556 25,900 2,520 Climbing FlightAware
05:41PM 37.8120 -86.9450 261° West 471 542 27,700 2,940 Climbing FlightAware
05:42PM 37.8000 -87.0410 261° West 460 529 29,600 2,820 Climbing FlightAware
05:42PM 37.7880 -87.1210 259° West 456 525 30,800 2,400 Climbing FlightAware
05:43PM 37.7550 -87.2030 243° Southwest 451 519 32,000 2,400 Climbing FlightAware
05:43PM 37.7150 -87.2730 234° Southwest 441 507 33,500 1,800 Climbing FlightAware
05:44PM 37.6760 -87.3410 234° Southwest 434 499 34,000 420 Climbing FlightAware
05:45PM 37.6340 -87.4150 234° Southwest 430 495 34,000  Level FlightAware
05:45PM 37.5890 -87.4930 234° Southwest 434 499 34,000  Level FlightAware
05:46PM 37.5460 -87.5670 234° Southwest 435 501 34,000  Level FlightAware
05:46PM 37.5090 -87.6310 234° Southwest 436 502 34,000  Level FlightAware
05:47PM 37.4630 -87.7090 233° Southwest 439 505 34,000  Level FlightAware
05:47PM 37.4240 -87.7760 234° Southwest 440 506 34,000  Level FlightAware
05:48PM 37.3810 -87.8500 234° Southwest 443 510 34,000 60 Level FlightAware
05:49PM 37.3360 -87.9250 233° Southwest 444 511 34,100 780 Climbing FlightAware
05:49PM 37.2930 -87.9990 234° Southwest 442 509 35,000 1,560 Climbing FlightAware
05:50PM 37.2550 -88.0640 234° Southwest 432 497 35,900 840 Climbing FlightAware
05:50PM 37.2130 -88.1370 234° Southwest 430 495 36,000 60 Climbing FlightAware
05:51PM 37.1700 -88.2090 233° Southwest 433 498 36,000  Level FlightAware
05:52PM 37.1310 -88.2740 233° Southwest 435 501 36,000  Level FlightAware
05:52PM 37.0870 -88.3480 233° Southwest 436 502 36,000 420 Level FlightAware
05:53PM 37.0470 -88.4160 234° Southwest 433 498 36,500 960 Climbing FlightAware
05:53PM 37.0000 -88.4940 233° Southwest 438 504 37,200 900 Climbing FlightAware
05:54PM 36.9620 -88.5590 234° Southwest 441 507 37,600 660 Climbing FlightAware
05:55PM 36.9170 -88.6330 233° Southwest 438 504 38,000 300 Climbing FlightAware
05:55PM 36.8730 -88.7070 233° Southwest 438 504 38,000  Level FlightAware
05:56PM 36.8300 -88.7780 233° Southwest 442 509 38,000  Level FlightAware
05:56PM 36.7880 -88.8480 233° Southwest 441 507 38,000  Level FlightAware
05:57PM 36.7460 -88.9180 233° Southwest 439 505 38,000  Level FlightAware
05:57PM 36.7060 -88.9850 233° Southwest 437 503 38,000  Level FlightAware
05:58PM 36.6610 -89.0580 232° Southwest 440 506 38,000  Level FlightAware
05:59PM 36.6160 -89.1320 233° Southwest 444 511 38,000  Level FlightAware
05:59PM 36.5710 -89.2060 233° Southwest 447 514 38,000  Level FlightAware
06:00PM 36.5320 -89.2700 233° Southwest 449 517 38,000  Level FlightAware
06:00PM 36.4860 -89.3450 233° Southwest 451 519 38,000  Level FlightAware
06:01PM 36.4400 -89.4200 233° Southwest 453 521 38,000  Level FlightAware
06:01PM 36.4000 -89.4850 233° Southwest 454 522 38,000 60 Level FlightAware
06:02PM 36.3510 -89.5650 233° Southwest 456 525 38,100 60 Climbing FlightAware
06:03PM 36.3110 -89.6310 233° Southwest 456 525 38,100  Level FlightAware
06:03PM 36.2640 -89.7060 232° Southwest 456 525 38,100 -120 Level FlightAware
06:04PM 36.2180 -89.7810 233° Southwest 454 522 38,000 -120 Descending FlightAware
06:04PM 36.1700 -89.8580 232° Southwest 454 522 38,000  Level FlightAware
06:05PM 36.1230 -89.9330 232° Southwest 453 521 38,000  Level FlightAware
06:06PM 36.0830 -89.9980 233° Southwest 453 521 38,000  Level FlightAware
06:06PM 36.0320 -90.0800 232° Southwest 453 521 38,000  Level FlightAware
06:07PM 35.9880 -90.1500 232° Southwest 453 521 38,000  Level FlightAware
06:07PM 35.9400 -90.2270 232° Southwest 452 520 38,000  Level FlightAware
06:08PM 35.8920 -90.3030 232° Southwest 452 520 38,000  Level FlightAware
06:09PM 35.8410 -90.3850 233° Southwest 451 519 38,000  Level FlightAware
06:09PM 35.8010 -90.4470 232° Southwest 451 519 38,000  Level FlightAware
06:10PM 35.7580 -90.5150 232° Southwest 451 519 38,000  Level FlightAware
06:11PM 35.7160 -90.5810 232° Southwest 451 519 38,000  Level FlightAware
06:11PM 35.6760 -90.6440 232° Southwest 451 519 38,000  Level FlightAware
06:12PM 35.6370 -90.7060 232° Southwest 451 519 38,000  Level FlightAware
06:12PM 35.5970 -90.7680 232° Southwest 451 519 38,000  Level FlightAware
06:13PM 35.5230 -90.8850 232° Southwest 455 524 38,000  Level FlightAware
06:14PM 35.4560 -90.9890 232° Southwest 457 526 38,000 60 Level FlightAware
06:14PM 35.4120 -91.0570 232° Southwest 458 527 38,100 60 Climbing FlightAware
06:15PM 35.3520 -91.1500 232° Southwest 459 528 38,100  Level FlightAware
06:16PM 35.3110 -91.2120 231° Southwest 459 528 38,100  Level FlightAware
06:16PM 35.2700 -91.2740 231° Southwest 459 528 38,100  Level FlightAware
06:17PM 35.2290 -91.3360 231° Southwest 459 528 38,100 -120 Level FlightAware
06:18PM 35.1390 -91.4790 232° Southwest 458 527 38,000 -120 Descending FlightAware
06:18PM 35.0980 -91.5410 231° Southwest 458 527 38,000  Level FlightAware
06:19PM 35.0460 -91.6220 232° Southwest 451 519 38,000  Level FlightAware
06:20PM 34.9950 -91.6990 231° Southwest 449 517 38,000  Level FlightAware
06:20PM 34.9560 -91.7600 232° Southwest 447 514 38,000  Level FlightAware
06:21PM 34.9020 -91.8420 231° Southwest 446 513 38,000  Level FlightAware
06:21PM 34.8640 -91.8990 231° Southwest 447 514 38,000  Level FlightAware
06:22PM 34.8210 -91.9630 231° Southwest 447 514 38,000  Level FlightAware
06:23PM 34.7800 -92.0250 231° Southwest 447 514 38,000  Level FlightAware
06:23PM 34.7410 -92.0850 232° Southwest 447 514 38,000  Level FlightAware
06:24PM 34.7020 -92.1430 231° Southwest 447 514 38,000  Level FlightAware
06:24PM 34.6620 -92.2030 231° Southwest 447 514 38,000  Level FlightAware
06:25PM 34.6220 -92.2630 231° Southwest 447 514 38,000  Level FlightAware
06:26PM 34.5810 -92.3240 231° Southwest 447 514 38,000  Level FlightAware
06:26PM 34.5410 -92.3840 231° Southwest 447 514 38,000  Level FlightAware
06:27PM 34.5140 -92.4250 231° Southwest 447 514 38,000  Level FlightAware
06:27PM 34.4740 -92.4850 231° Southwest 447 514 38,000  Level FlightAware
06:28PM 34.4340 -92.5440 231° Southwest 447 514 38,000  Level FlightAware
06:28PM 34.3940 -92.6040 231° Southwest 447 514 38,000  Level FlightAware
06:29PM 34.3540 -92.6640 231° Southwest 447 514 38,000  Level FlightAware
06:30PM 34.4550 -93.0240 289° West 38,000  Level FlightAware
06:30PM 34.4460 -93.0570 252° West 454 522 38,000  Level FlightAware
06:31PM 34.4150 -93.1710 252° West 454 522 38,000  Level FlightAware
06:31PM 34.4130 -93.1770 248° West 454 522 38,000  Level FlightAware
06:32PM 34.3660 -93.3500 252° West 455 524 38,000  Level FlightAware
06:33PM 34.3310 -93.4800 252° West 455 524 38,000  Level FlightAware
06:34PM 34.2660 -93.7140 251° West 457 526 38,000  Level FlightAware
06:35PM 34.2410 -93.8060 252° West 457 526 38,000  Level FlightAware
06:36PM 34.2210 -93.8800 252° West 457 526 38,000  Level FlightAware
06:36PM 34.2000 -93.9570 252° West 457 526 38,000  Level FlightAware
06:37PM 34.1800 -94.0310 252° West 457 526 38,000  Level FlightAware
06:37PM 34.1600 -94.1060 252° West 457 526 38,000  Level FlightAware
06:38PM 34.1400 -94.1820 252° West 457 526 38,000  Level FlightAware
06:39PM 34.1200 -94.2560 252° West 457 526 38,000  Level FlightAware
06:39PM 34.0660 -94.4290 249° West 455 524 38,000 -720 Level FlightAware
06:40PM 34.0470 -94.4960 251° West 445 512 37,200 -1,380 Descending FlightAware
06:40PM 34.0230 -94.5780 251° West 447 514 36,400 -660 Descending FlightAware
06:41PM 34.0030 -94.6500 251° West 447 514 36,400  Level FlightAware
06:42PM 33.9820 -94.7220 251° West 447 514 36,400 -4,740 Level FlightAware
06:42PM 33.9380 -94.8770 251° West 487 560 30,400 -6,120 Descending FlightAware
06:43PM 33.9110 -94.9700 251° West 481 554 28,800 -2,580 Descending FlightAware
06:44PM 33.8820 -95.0710 251° West 476 548 27,200 -2,460 Descending FlightAware
06:44PM 33.8570 -95.1580 251° West 466 536 25,700 -2,460 Descending FlightAware
06:45PM 33.8310 -95.2460 250° West 456 525 24,300 -1,560 Descending FlightAware
06:45PM 33.8090 -95.3220 251° West 450 518 24,000 -300 Descending FlightAware
06:46PM 33.7850 -95.4020 250° West 450 518 24,000 -780 Level FlightAware
06:46PM 33.7600 -95.4900 251° West 445 512 23,100 -1,500 Descending FlightAware
06:47PM 33.7370 -95.5690 251° West 442 509 22,400 -1,260 Descending FlightAware
06:48PM 33.7110 -95.6560 250° West 441 507 21,600 -1,260 Descending FlightAware
06:48PM 33.6890 -95.7270 250° West 440 506 21,000 -1,260 Descending FlightAware
06:49PM 33.6650 -95.8110 251° West 424 488 20,200 -1,440 Descending FlightAware
06:49PM 33.6450 -95.8770 250° West 410 472 19,400 -1,860 Descending FlightAware
06:50PM 33.6190 -95.9610 250° West 385 443 18,000 -2,040 Descending FlightAware
06:51PM 33.5980 -96.0330 251° West 379 436 16,800 -1,980 Descending FlightAware
06:51PM 33.5800 -96.0960 251° West 374 430 15,800 -1,860 Descending FlightAware
06:52PM 33.5580 -96.1680 250° West 367 422 14,700 -1,620 Descending FlightAware
06:52PM 33.5350 -96.2330 247° West 338 389 13,900 -1,440 Descending FlightAware
06:53PM 33.4980 -96.2800 227° Southwest 321 369 13,000 -1,620 Descending FlightAware
06:53PM 33.4670 -96.3180 226° Southwest 318 366 12,100 -1,500 Descending FlightAware
06:54PM 33.4280 -96.3650 225° Southwest 313 360 11,300 -960 Descending FlightAware
06:55PM 33.3940 -96.4080 227° Southwest 309 356 11,000 -780 Descending FlightAware
06:55PM 33.3570 -96.4500 223° Southwest 305 351 10,400 -1,320 Descending FlightAware
06:56PM 33.3420 -96.4700 228° Southwest 307 353 9,900 -1,500 Descending FlightAware
06:56PM 33.3260 -96.4980 236° Southwest 302 348 9,500 -1,140 Descending FlightAware
06:56PM 33.3140 -96.5230 240° Southwest 293 337 9,200 -1,140 Descending FlightAware
06:56PM 33.3030 -96.5430 237° Southwest 292 336 8,900 -1,440 Descending FlightAware
06:57PM 33.2860 -96.5750 238° Southwest 290 334 8,300 -1,500 Descending FlightAware
06:57PM 33.2710 -96.6020 236° Southwest 287 330 7,800 -1,320 Descending FlightAware
06:57PM 33.2560 -96.6280 235° Southwest 282 325 7,400 -1,320 Descending FlightAware
06:58PM 33.2420 -96.6550 238° Southwest 280 322 6,900 -1,440 Descending FlightAware
06:58PM 33.2260 -96.6850 237° Southwest 278 320 6,400 -1,440 Descending FlightAware
06:59PM 33.2120 -96.7110 237° Southwest 275 316 5,900 -1,320 Descending FlightAware
06:59PM 33.1980 -96.7370 237° Southwest 274 315 5,500 -1,200 Descending FlightAware
06:59PM 33.1850 -96.7620 238° Southwest 273 314 5,100 -780 Descending FlightAware
06:59PM 33.1750 -96.7790 235° Southwest 272 313 5,100 -180 Level FlightAware
07:00PM 33.1600 -96.8070 237° Southwest 274 315 5,000 -180 Descending FlightAware
07:00PM 33.1460 -96.8320 236° Southwest 258 297 5,000  Level FlightAware
07:00PM 33.1360 -96.8510 238° Southwest 253 291 5,000 -360 Level FlightAware
07:01PM 33.1230 -96.8760 238° Southwest 240 276 4,800 -1,080 Descending FlightAware
07:01PM 33.1120 -96.8960 237° Southwest 242 278 4,300 -1,260 Descending FlightAware
07:01PM 33.1000 -96.9190 238° Southwest 236 272 4,000 -1,140 Descending FlightAware
07:02PM 33.0860 -96.9440 236° Southwest 236 272 3,500 -1,080 Descending FlightAware
07:02PM 33.0740 -96.9680 239° Southwest 218 251 3,200 -960 Descending FlightAware
07:02PM 33.0680 -96.9780 234° Southwest 213 245 3,000 -1,200 Descending FlightAware
07:02PM 33.0610 -96.9850 220° Southwest 208 239 2,800 -840 Descending FlightAware
07:03PM 33.0460 -96.9940 207° Southwest 190 219 2,600 -720 Descending FlightAware
07:03PM 33.0280 -97.0050 207° Southwest 188 216 2,300 -420 Descending FlightAware
07:04PM 33.0110 -97.0150 206° Southwest 180 207 2,300 -480 Level FlightAware
07:04PM 32.9970 -97.0240 208° Southwest 158 182 2,000 -780 Descending FlightAware
07:04PM 32.9880 -97.0250 185° South 155 178 1,900 -780 Descending FlightAware
07:04PM 32.9730 -97.0260 183° South 154 177 1,600 -420 Descending FlightAware
07:05PM 32.9470 -97.0260 180° South 159 183 1,500 -600 Descending FlightAware
07:06PM 32.8872 -97.0375 180° South 165 190 500 -780 Descending Fort Worth Center
07:08PM 32.8833 -97.0333 232° Southwest  Level FlightAware Approximate